sensor_id;sensor_type;location;lat;lon;timestamp;pressure;altitude;pressure_sealevel;temperature;humidity
22389;BME280;11362;48.102;11.620;2023-04-23T00:00:21;94662.31;;;21.26;35.24
22389;BME280;11362;48.102;11.620;2023-04-23T00:02:51;94657.56;;;21.26;35.10
22389;BME280;11362;48.102;11.620;2023-04-23T00:05:18;94655.59;;;21.27;35.30
22389;BME280;11362;48.102;11.620;2023-04-23T00:07:44;94661.13;;;21.27;35.32
22389;BME280;11362;48.102;11.620;2023-04-23T00:10:09;94656.81;;;21.26;35.37
22389;BME280;11362;48.102;11.620;2023-04-23T00:12:35;94650.06;;;21.27;35.29
22389;BME280;11362;48.102;11.620;2023-04-23T00:15:03;94654.81;;;21.26;35.17
22389;BME280;11362;48.102;11.620;2023-04-23T00:17:28;94658.34;;;21.27;35.29
22389;BME280;11362;48.102;11.620;2023-04-23T00:19:54;94646.13;;;21.28;35.20
22389;BME280;11362;48.102;11.620;2023-04-23T00:22:19;94646.53;;;21.26;35.31
22389;BME280;11362;48.102;11.620;2023-04-23T00:24:45;94643.00;;;21.26;35.30
22389;BME280;11362;48.102;11.620;2023-04-23T00:27:10;94640.22;;;21.26;35.29
22389;BME280;11362;48.102;11.620;2023-04-23T00:29:36;94638.22;;;21.26;35.32
22389;BME280;11362;48.102;11.620;2023-04-23T00:32:01;94639.03;;;21.27;35.61
22389;BME280;11362;48.102;11.620;2023-04-23T00:34:26;94640.22;;;21.26;35.36
22389;BME280;11362;48.102;11.620;2023-04-23T00:36:52;94639.44;;;21.25;35.41
22389;BME280;11362;48.102;11.620;2023-04-23T00:39:17;94635.88;;;21.25;35.35
22389;BME280;11362;48.102;11.620;2023-04-23T00:41:42;94636.69;;;21.25;35.37
22389;BME280;11362;48.102;11.620;2023-04-23T00:44:08;94640.22;;;21.26;35.28
22389;BME280;11362;48.102;11.620;2023-04-23T00:46:34;94636.69;;;21.25;35.42
22389;BME280;11362;48.102;11.620;2023-04-23T00:49:00;94635.13;;;21.24;35.14
22389;BME280;11362;48.102;11.620;2023-04-23T00:51:27;94637.47;;;21.26;35.17
22389;BME280;11362;48.102;11.620;2023-04-23T00:53:52;94639.44;;;21.25;35.16
22389;BME280;11362;48.102;11.620;2023-04-23T00:56:17;94630.34;;;21.25;35.38
22389;BME280;11362;48.102;11.620;2023-04-23T00:58:43;94632.72;;;21.26;35.23
22389;BME280;11362;48.102;11.620;2023-04-23T01:01:09;94628.38;;;21.25;35.32
22389;BME280;11362;48.102;11.620;2023-04-23T01:03:36;94635.88;;;21.25;35.38
22389;BME280;11362;48.102;11.620;2023-04-23T01:06:03;94631.94;;;21.26;35.56
22389;BME280;11362;48.102;11.620;2023-04-23T01:08:30;94633.13;;;21.25;35.37
22389;BME280;11362;48.102;11.620;2023-04-23T01:10:56;94632.34;;;21.24;35.56
22389;BME280;11362;48.102;11.620;2023-04-23T01:13:22;94623.66;;;21.26;35.26
22389;BME280;11362;48.102;11.620;2023-04-23T01:15:48;94622.06;;;21.25;35.46
22389;BME280;11362;48.102;11.620;2023-04-23T01:18:13;94633.13;;;21.25;35.26
22389;BME280;11362;48.102;11.620;2023-04-23T01:20:39;94627.59;;;21.25;35.55
22389;BME280;11362;48.102;11.620;2023-04-23T01:23:04;94627.59;;;21.25;35.40
22389;BME280;11362;48.102;11.620;2023-04-23T01:25:30;94622.88;;;21.25;35.40
22389;BME280;11362;48.102;11.620;2023-04-23T01:27:56;94623.66;;;21.26;35.27
22389;BME280;11362;48.102;11.620;2023-04-23T01:30:24;94624.84;;;21.25;35.40
22389;BME280;11362;48.102;11.620;2023-04-23T01:32:50;94618.13;;;21.26;35.62
22389;BME280;11362;48.102;11.620;2023-04-23T01:35:16;94618.13;;;21.26;35.38
22389;BME280;11362;48.102;11.620;2023-04-23T01:37:42;94618.13;;;21.26;35.42
22389;BME280;11362;48.102;11.620;2023-04-23T01:40:08;94622.88;;;21.25;35.55
22389;BME280;11362;48.102;11.620;2023-04-23T01:42:34;94615.78;;;21.24;35.33
22389;BME280;11362;48.102;11.620;2023-04-23T01:45:01;94620.09;;;21.25;35.50
22389;BME280;11362;48.102;11.620;2023-04-23T01:47:27;94622.06;;;21.25;35.39
22389;BME280;11362;48.102;11.620;2023-04-23T01:49:52;94620.09;;;21.25;35.60
22389;BME280;11362;48.102;11.620;2023-04-23T01:52:17;94624.84;;;21.25;35.34
22389;BME280;11362;48.102;11.620;2023-04-23T01:54:43;94623.28;;;21.24;35.48
22389;BME280;11362;48.102;11.620;2023-04-23T01:57:09;94623.28;;;21.24;35.46
22389;BME280;11362;48.102;11.620;2023-04-23T01:59:34;94633.13;;;21.25;35.57
22389;BME280;11362;48.102;11.620;2023-04-23T02:02:00;94619.75;;;21.23;35.50
22389;BME280;11362;48.102;11.620;2023-04-23T02:04:26;94626.03;;;21.24;35.78
22389;BME280;11362;48.102;11.620;2023-04-23T02:06:51;94633.13;;;21.25;35.67
22389;BME280;11362;48.102;11.620;2023-04-23T02:09:17;94632.34;;;21.24;35.25
22389;BME280;11362;48.102;11.620;2023-04-23T02:11:42;94626.03;;;21.24;35.71
22389;BME280;11362;48.102;11.620;2023-04-23T02:14:08;94625.28;;;21.23;35.52
22389;BME280;11362;48.102;11.620;2023-04-23T02:16:33;94631.56;;;21.24;35.43
22389;BME280;11362;48.102;11.620;2023-04-23T02:18:58;94626.81;;;21.24;35.49
22389;BME280;11362;48.102;11.620;2023-04-23T02:21:24;94620.50;;;21.24;35.48
22389;BME280;11362;48.102;11.620;2023-04-23T02:23:50;94626.03;;;21.24;35.62
22389;BME280;11362;48.102;11.620;2023-04-23T02:26:15;94624.06;;;21.24;35.64
22389;BME280;11362;48.102;11.620;2023-04-23T02:28:41;94626.03;;;21.24;35.60
22389;BME280;11362;48.102;11.620;2023-04-23T02:31:06;94624.47;;;21.23;35.42
22389;BME280;11362;48.102;11.620;2023-04-23T02:33:32;94623.28;;;21.24;35.59
22389;BME280;11362;48.102;11.620;2023-04-23T02:35:57;94622.50;;;21.23;35.55
22389;BME280;11362;48.102;11.620;2023-04-23T02:38:22;94614.63;;;21.22;35.67
22389;BME280;11362;48.102;11.620;2023-04-23T02:40:47;94624.47;;;21.23;35.58
22389;BME280;11362;48.102;11.620;2023-04-23T02:43:13;94628.44;;;21.22;35.54
22389;BME280;11362;48.102;11.620;2023-04-23T02:45:38;94632.75;;;21.23;35.78
22389;BME280;11362;48.102;11.620;2023-04-23T02:48:03;94627.25;;;21.23;35.64
22389;BME280;11362;48.102;11.620;2023-04-23T02:50:29;94634.75;;;21.22;35.65
22389;BME280;11362;48.102;11.620;2023-04-23T02:52:54;94631.19;;;21.22;35.58
22389;BME280;11362;48.102;11.620;2023-04-23T02:55:19;94630.00;;;21.23;35.68
22389;BME280;11362;48.102;11.620;2023-04-23T02:57:45;94625.28;;;21.23;35.27
22389;BME280;11362;48.102;11.620;2023-04-23T03:00:10;94630.34;;;21.25;35.54
22389;BME280;11362;48.102;11.620;2023-04-23T03:02:36;94630.00;;;21.23;35.84
22389;BME280;11362;48.102;11.620;2023-04-23T03:05:01;94639.84;;;21.24;35.52
22389;BME280;11362;48.102;11.620;2023-04-23T03:07:26;94630.00;;;21.23;35.61
22389;BME280;11362;48.102;11.620;2023-04-23T03:09:52;94634.31;;;21.24;35.51
22389;BME280;11362;48.102;11.620;2023-04-23T03:12:17;94636.31;;;21.23;35.66
22389;BME280;11362;48.102;11.620;2023-04-23T03:14:42;94631.56;;;21.24;35.54
22389;BME280;11362;48.102;11.620;2023-04-23T03:17:07;94636.31;;;21.23;35.30
22389;BME280;11362;48.102;11.620;2023-04-23T03:19:33;94637.09;;;21.24;35.79
22389;BME280;11362;48.102;11.620;2023-04-23T03:21:58;94643.81;;;21.23;35.69
22389;BME280;11362;48.102;11.620;2023-04-23T03:24:23;94648.13;;;21.24;35.68
22389;BME280;11362;48.102;11.620;2023-04-23T03:26:48;94646.56;;;21.23;35.73
22389;BME280;11362;48.102;11.620;2023-04-23T03:29:14;94642.59;;;21.24;35.63
22389;BME280;11362;48.102;11.620;2023-04-23T03:31:39;94641.03;;;21.23;35.72
22389;BME280;11362;48.102;11.620;2023-04-23T03:34:04;94645.81;;;21.22;35.76
22389;BME280;11362;48.102;11.620;2023-04-23T03:36:30;94649.34;;;21.23;35.67
22389;BME280;11362;48.102;11.620;2023-04-23T03:38:55;94644.59;;;21.23;35.80
22389;BME280;11362;48.102;11.620;2023-04-23T03:41:20;94648.13;;;21.24;35.70
22389;BME280;11362;48.102;11.620;2023-04-23T03:43:45;94651.31;;;21.22;35.77
22389;BME280;11362;48.102;11.620;2023-04-23T03:46:11;94653.66;;;21.24;35.78
22389;BME280;11362;48.102;11.620;2023-04-23T03:48:36;94652.88;;;21.23;35.73
22389;BME280;11362;48.102;11.620;2023-04-23T03:51:01;94650.88;;;21.24;35.81
22389;BME280;11362;48.102;11.620;2023-04-23T03:53:26;94651.69;;;21.24;35.71
22389;BME280;11362;48.102;11.620;2023-04-23T03:55:52;94653.66;;;21.24;35.83
22389;BME280;11362;48.102;11.620;2023-04-23T03:58:17;94658.41;;;21.23;35.50
22389;BME280;11362;48.102;11.620;2023-04-23T04:00:42;94658.41;;;21.23;35.81
22389;BME280;11362;48.102;11.620;2023-04-23T04:03:08;94654.84;;;21.23;35.71
22389;BME280;11362;48.102;11.620;2023-04-23T04:05:34;94661.19;;;21.23;35.63
22389;BME280;11362;48.102;11.620;2023-04-23T04:07:59;94664.69;;;21.24;35.79
22389;BME280;11362;48.102;11.620;2023-04-23T04:10:24;94665.91;;;21.23;35.76
22389;BME280;11362;48.102;11.620;2023-04-23T04:12:50;94665.91;;;21.23;35.85
22389;BME280;11362;48.102;11.620;2023-04-23T04:15:15;94663.13;;;21.23;35.72
22389;BME280;11362;48.102;11.620;2023-04-23T04:17:41;94663.94;;;21.23;35.81
22389;BME280;11362;48.102;11.620;2023-04-23T04:20:06;94661.94;;;21.24;35.74
22389;BME280;11362;48.102;11.620;2023-04-23T04:22:32;94666.69;;;21.23;35.77
22389;BME280;11362;48.102;11.620;2023-04-23T04:24:57;94662.38;;;21.22;35.64
22389;BME280;11362;48.102;11.620;2023-04-23T04:27:22;94665.13;;;21.22;35.84
22389;BME280;11362;48.102;11.620;2023-04-23T04:29:48;94679.72;;;21.23;35.98
22389;BME280;11362;48.102;11.620;2023-04-23T04:32:13;94683.28;;;21.23;35.65
22389;BME280;11362;48.102;11.620;2023-04-23T04:34:38;94680.50;;;21.23;35.83
22389;BME280;11362;48.102;11.620;2023-04-23T04:37:03;94680.91;;;21.22;35.82
22389;BME280;11362;48.102;11.620;2023-04-23T04:39:29;94690.75;;;21.23;35.73
22389;BME280;11362;48.102;11.620;2023-04-23T04:41:54;94679.72;;;21.23;35.85
22389;BME280;11362;48.102;11.620;2023-04-23T04:44:20;94687.59;;;21.24;36.14
22389;BME280;11362;48.102;11.620;2023-04-23T04:46:46;94701.81;;;21.23;35.72
22389;BME280;11362;48.102;11.620;2023-04-23T04:49:11;94700.25;;;21.22;35.68
22389;BME280;11362;48.102;11.620;2023-04-23T04:51:37;94707.34;;;21.23;35.82
22389;BME280;11362;48.102;11.620;2023-04-23T04:54:03;94708.91;;;21.24;35.80
22389;BME280;11362;48.102;11.620;2023-04-23T04:56:29;94708.91;;;21.24;35.83
22389;BME280;11362;48.102;11.620;2023-04-23T04:58:54;94715.63;;;21.23;35.93
22389;BME280;11362;48.102;11.620;2023-04-23T05:01:20;94715.63;;;21.23;35.89
22389;BME280;11362;48.102;11.620;2023-04-23T05:03:46;94710.88;;;21.23;35.97
22389;BME280;11362;48.102;11.620;2023-04-23T05:06:11;94718.38;;;21.23;35.78
22389;BME280;11362;48.102;11.620;2023-04-23T05:08:36;94712.84;;;21.23;35.86
22389;BME280;11362;48.102;11.620;2023-04-23T05:11:02;94714.41;;;21.24;36.01
22389;BME280;11362;48.102;11.620;2023-04-23T05:13:27;94717.19;;;21.24;35.68
22389;BME280;11362;48.102;11.620;2023-04-23T05:15:52;94707.34;;;21.23;35.99
22389;BME280;11362;48.102;11.620;2023-04-23T05:18:18;94712.84;;;21.23;35.77
22389;BME280;11362;48.102;11.620;2023-04-23T05:20:43;94726.25;;;21.24;35.94
22389;BME280;11362;48.102;11.620;2023-04-23T05:23:08;94725.47;;;21.24;35.72
22389;BME280;11362;48.102;11.620;2023-04-23T05:25:34;94726.66;;;21.23;35.95
22389;BME280;11362;48.102;11.620;2023-04-23T05:27:59;94725.47;;;21.24;35.91
22389;BME280;11362;48.102;11.620;2023-04-23T05:30:24;94733.75;;;21.24;36.03
22389;BME280;11362;48.102;11.620;2023-04-23T05:32:50;94737.72;;;21.23;35.84
22389;BME280;11362;48.102;11.620;2023-04-23T05:35:15;94732.97;;;21.23;35.86
22389;BME280;11362;48.102;11.620;2023-04-23T05:37:41;94737.72;;;21.23;36.07
22389;BME280;11362;48.102;11.620;2023-04-23T05:40:07;94754.28;;;21.23;36.12
22389;BME280;11362;48.102;11.620;2023-04-23T05:42:35;94748.75;;;21.23;36.05
22389;BME280;11362;48.102;11.620;2023-04-23T05:45:01;94757.84;;;21.23;36.08
22389;BME280;11362;48.102;11.620;2023-04-23T05:47:27;94746.00;;;21.23;36.04
22389;BME280;11362;48.102;11.620;2023-04-23T05:49:53;94748.75;;;21.23;35.97
22389;BME280;11362;48.102;11.620;2023-04-23T05:52:18;94757.84;;;21.23;35.96
22389;BME280;11362;48.102;11.620;2023-04-23T05:54:43;94750.31;;;21.24;35.95
22389;BME280;11362;48.102;11.620;2023-04-23T05:57:10;94746.00;;;21.23;36.07
22389;BME280;11362;48.102;11.620;2023-04-23T05:59:35;94746.78;;;21.23;36.04
22389;BME280;11362;48.102;11.620;2023-04-23T06:02:00;94741.28;;;21.23;36.04
22389;BME280;11362;48.102;11.620;2023-04-23T06:04:26;94754.28;;;21.23;36.04
22389;BME280;11362;48.102;11.620;2023-04-23T06:06:51;94759.81;;;21.23;36.23
22389;BME280;11362;48.102;11.620;2023-04-23T06:09:16;94758.59;;;21.24;36.21
22389;BME280;11362;48.102;11.620;2023-04-23T06:11:42;94762.16;;;21.24;36.03
22389;BME280;11362;48.102;11.620;2023-04-23T06:14:07;94766.50;;;21.25;36.10
22389;BME280;11362;48.102;11.620;2023-04-23T06:16:32;94775.19;;;21.24;36.20
22389;BME280;11362;48.102;11.620;2023-04-23T06:18:58;94770.44;;;21.24;36.02
22389;BME280;11362;48.102;11.620;2023-04-23T06:21:23;94775.63;;;21.22;36.22
22389;BME280;11362;48.102;11.620;2023-04-23T06:23:49;94773.63;;;21.23;36.35
22389;BME280;11362;48.102;11.620;2023-04-23T06:26:15;94777.94;;;21.24;35.95
22389;BME280;11362;48.102;11.620;2023-04-23T06:28:41;94776.03;;;21.21;36.17
22389;BME280;11362;48.102;11.620;2023-04-23T06:31:07;94778.38;;;21.22;36.36
22389;BME280;11362;48.102;11.620;2023-04-23T06:33:32;94774.41;;;21.23;36.14
22389;BME280;11362;48.102;11.620;2023-04-23T06:35:57;94774.41;;;21.23;36.08
22389;BME280;11362;48.102;11.620;2023-04-23T06:38:23;94776.38;;;21.23;36.25
22389;BME280;11362;48.102;11.620;2023-04-23T06:40:48;94783.47;;;21.24;36.15
22389;BME280;11362;48.102;11.620;2023-04-23T06:43:13;94785.81;;;21.25;36.38
22389;BME280;11362;48.102;11.620;2023-04-23T06:45:39;94781.50;;;21.24;36.05
22389;BME280;11362;48.102;11.620;2023-04-23T06:48:04;94778.75;;;21.24;36.09
22389;BME280;11362;48.102;11.620;2023-04-23T06:50:29;94776.75;;;21.25;36.27
22389;BME280;11362;48.102;11.620;2023-04-23T06:52:55;94772.41;;;21.24;36.12
22389;BME280;11362;48.102;11.620;2023-04-23T06:55:20;94773.63;;;21.23;36.18
22389;BME280;11362;48.102;11.620;2023-04-23T06:57:46;94770.44;;;21.24;36.19
22389;BME280;11362;48.102;11.620;2023-04-23T07:00:12;94761.75;;;21.26;36.38
22389;BME280;11362;48.102;11.620;2023-04-23T07:02:37;94762.94;;;21.25;36.16
22389;BME280;11362;48.102;11.620;2023-04-23T07:05:03;94757.84;;;21.23;36.33
22389;BME280;11362;48.102;11.620;2023-04-23T07:07:28;94753.09;;;21.24;36.33
22389;BME280;11362;48.102;11.620;2023-04-23T07:09:54;94760.59;;;21.23;36.36
22389;BME280;11362;48.102;11.620;2023-04-23T07:12:19;94758.59;;;21.24;36.53
22389;BME280;11362;48.102;11.620;2023-04-23T07:14:45;94754.66;;;21.25;36.42
22389;BME280;11362;48.102;11.620;2023-04-23T07:17:10;94753.09;;;21.24;36.50
22389;BME280;11362;48.102;11.620;2023-04-23T07:19:36;94762.16;;;21.24;36.45
22389;BME280;11362;48.102;11.620;2023-04-23T07:22:01;94755.09;;;21.23;36.42
22389;BME280;11362;48.102;11.620;2023-04-23T07:24:27;94755.84;;;21.24;36.40
22389;BME280;11362;48.102;11.620;2023-04-23T07:26:52;94758.59;;;21.24;36.27
22389;BME280;11362;48.102;11.620;2023-04-23T07:29:17;94762.56;;;21.23;36.49
22389;BME280;11362;48.102;11.620;2023-04-23T07:31:43;94762.56;;;21.23;36.35
22389;BME280;11362;48.102;11.620;2023-04-23T07:34:08;94753.13;;;21.20;36.48
22389;BME280;11362;48.102;11.620;2023-04-23T07:36:34;94752.38;;;21.20;36.58
22389;BME280;11362;48.102;11.620;2023-04-23T07:38:59;94761.00;;;21.22;36.42
22389;BME280;11362;48.102;11.620;2023-04-23T07:41:25;94761.00;;;21.22;36.69
22389;BME280;11362;48.102;11.620;2023-04-23T07:43:50;94762.56;;;21.23;36.65
22389;BME280;11362;48.102;11.620;2023-04-23T07:46:15;94760.59;;;21.23;36.32
22389;BME280;11362;48.102;11.620;2023-04-23T07:48:40;94757.03;;;21.23;36.69
22389;BME280;11362;48.102;11.620;2023-04-23T07:51:07;94761.00;;;21.22;36.57
22389;BME280;11362;48.102;11.620;2023-04-23T07:53:32;94761.00;;;21.22;36.31
22389;BME280;11362;48.102;11.620;2023-04-23T07:55:59;94761.00;;;21.22;36.67
22389;BME280;11362;48.102;11.620;2023-04-23T07:58:24;94758.25;;;21.22;36.38
22389;BME280;11362;48.102;11.620;2023-04-23T08:00:49;94755.09;;;21.23;36.52
22389;BME280;11362;48.102;11.620;2023-04-23T08:03:15;94761.81;;;21.22;36.38
22389;BME280;11362;48.102;11.620;2023-04-23T08:05:40;94762.56;;;21.23;36.55
22389;BME280;11362;48.102;11.620;2023-04-23T08:08:06;94763.78;;;21.22;36.53
22389;BME280;11362;48.102;11.620;2023-04-23T08:10:31;94758.59;;;21.24;36.66
22389;BME280;11362;48.102;11.620;2023-04-23T08:12:57;94762.56;;;21.23;36.70
22389;BME280;11362;48.102;11.620;2023-04-23T08:15:22;94764.13;;;21.24;36.62
22389;BME280;11362;48.102;11.620;2023-04-23T08:17:47;94763.38;;;21.23;36.42
22389;BME280;11362;48.102;11.620;2023-04-23T08:20:13;94754.28;;;21.23;36.50
22389;BME280;11362;48.102;11.620;2023-04-23T08:22:38;94754.28;;;21.23;36.68
22389;BME280;11362;48.102;11.620;2023-04-23T08:25:03;94749.13;;;21.25;36.98
22389;BME280;11362;48.102;11.620;2023-04-23T08:27:29;94746.34;;;21.25;36.69
22389;BME280;11362;48.102;11.620;2023-04-23T08:29:54;94743.59;;;21.25;36.74
22389;BME280;11362;48.102;11.620;2023-04-23T08:32:19;94736.91;;;21.26;36.57
22389;BME280;11362;48.102;11.620;2023-04-23T08:34:45;94745.94;;;21.26;36.33
22389;BME280;11362;48.102;11.620;2023-04-23T08:37:10;94739.22;;;21.27;36.86
22389;BME280;11362;48.102;11.620;2023-04-23T08:39:35;94742.00;;;21.27;36.76
22389;BME280;11362;48.102;11.620;2023-04-23T08:42:34;94736.09;;;21.25;36.74
22389;BME280;11362;48.102;11.620;2023-04-23T08:44:54;94734.13;;;21.26;36.58
22389;BME280;11362;48.102;11.620;2023-04-23T08:47:23;94734.91;;;21.26;36.79
22389;BME280;11362;48.102;11.620;2023-04-23T08:49:53;94733.34;;;21.25;36.90
22389;BME280;11362;48.102;11.620;2023-04-23T08:52:22;94730.19;;;21.27;36.73
22389;BME280;11362;48.102;11.620;2023-04-23T08:54:51;94732.94;;;21.27;36.77
22389;BME280;11362;48.102;11.620;2023-04-23T08:57:17;94734.13;;;21.26;36.88
22389;BME280;11362;48.102;11.620;2023-04-23T08:59:44;94732.16;;;21.26;36.84
22389;BME280;11362;48.102;11.620;2023-04-23T09:02:10;94735.69;;;21.27;36.42
22389;BME280;11362;48.102;11.620;2023-04-23T09:04:36;94727.41;;;21.27;36.87
22389;BME280;11362;48.102;11.620;2023-04-23T09:07:02;94732.94;;;21.27;36.87
22389;BME280;11362;48.102;11.620;2023-04-23T09:09:28;94725.06;;;21.25;37.02
22389;BME280;11362;48.102;11.620;2023-04-23T09:11:57;94723.84;;;21.26;36.80
22389;BME280;11362;48.102;11.620;2023-04-23T09:14:23;94722.66;;;21.27;36.89
22389;BME280;11362;48.102;11.620;2023-04-23T09:16:49;94732.94;;;21.27;36.90
22389;BME280;11362;48.102;11.620;2023-04-23T09:19:17;94726.63;;;21.26;36.99
22389;BME280;11362;48.102;11.620;2023-04-23T09:21:43;94725.41;;;21.27;36.77
22389;BME280;11362;48.102;11.620;2023-04-23T09:24:10;94728.97;;;21.28;36.81
22389;BME280;11362;48.102;11.620;2023-04-23T09:26:35;94713.59;;;21.27;37.27
22389;BME280;11362;48.102;11.620;2023-04-23T09:29:12;94707.66;;;21.28;37.01
22389;BME280;11362;48.102;11.620;2023-04-23T09:31:38;94705.69;;;21.29;36.86
22389;BME280;11362;48.102;11.620;2023-04-23T09:34:03;94696.97;;;21.30;36.78
22389;BME280;11362;48.102;11.620;2023-04-23T09:36:30;94707.25;;;21.30;36.73
22389;BME280;11362;48.102;11.620;2023-04-23T09:38:57;94701.72;;;21.30;36.84
22389;BME280;11362;48.102;11.620;2023-04-23T09:41:24;94702.50;;;21.30;36.77
22389;BME280;11362;48.102;11.620;2023-04-23T09:43:56;94697.75;;;21.31;36.65
22389;BME280;11362;48.102;11.620;2023-04-23T09:46:32;94696.19;;;21.30;36.92
22389;BME280;11362;48.102;11.620;2023-04-23T09:48:57;94693.06;;;21.28;36.97
22389;BME280;11362;48.102;11.620;2023-04-23T09:51:24;94690.72;;;21.26;36.87
22389;BME280;11362;48.102;11.620;2023-04-23T09:53:49;94685.19;;;21.26;36.92
22389;BME280;11362;48.102;11.620;2023-04-23T09:56:15;94683.56;;;21.29;37.08
22389;BME280;11362;48.102;11.620;2023-04-23T09:58:40;94688.31;;;21.28;36.81
22389;BME280;11362;48.102;11.620;2023-04-23T10:01:06;94682.38;;;21.30;36.93
22389;BME280;11362;48.102;11.620;2023-04-23T10:03:32;94681.19;;;21.31;37.08
22389;BME280;11362;48.102;11.620;2023-04-23T10:05:57;94678.41;;;21.31;37.20
22389;BME280;11362;48.102;11.620;2023-04-23T10:08:23;94683.94;;;21.31;37.01
22389;BME280;11362;48.102;11.620;2023-04-23T10:10:48;94685.50;;;21.32;37.09
22389;BME280;11362;48.102;11.620;2023-04-23T10:13:15;94675.66;;;21.31;37.11
22389;BME280;11362;48.102;11.620;2023-04-23T10:15:41;94673.69;;;21.31;37.15
22389;BME280;11362;48.102;11.620;2023-04-23T10:18:06;94664.59;;;21.31;36.96
22389;BME280;11362;48.102;11.620;2023-04-23T10:20:33;94661.84;;;21.31;37.17
22389;BME280;11362;48.102;11.620;2023-04-23T10:22:59;94665.00;;;21.33;37.09
22389;BME280;11362;48.102;11.620;2023-04-23T10:25:25;94661.03;;;21.34;37.08
22389;BME280;11362;48.102;11.620;2023-04-23T10:27:52;94658.25;;;21.34;37.08
22389;BME280;11362;48.102;11.620;2023-04-23T10:30:19;94663.78;;;21.34;36.99
22389;BME280;11362;48.102;11.620;2023-04-23T10:32:47;94651.19;;;21.33;37.06
22389;BME280;11362;48.102;11.620;2023-04-23T10:35:12;94653.16;;;21.32;37.13
22389;BME280;11362;48.102;11.620;2023-04-23T10:37:38;94665.00;;;21.33;37.07
22389;BME280;11362;48.102;11.620;2023-04-23T10:40:07;94659.03;;;21.34;37.17
22389;BME280;11362;48.102;11.620;2023-04-23T10:42:33;94661.03;;;21.34;37.04
22389;BME280;11362;48.102;11.620;2023-04-23T10:44:58;94652.28;;;21.35;37.09
22389;BME280;11362;48.102;11.620;2023-04-23T10:47:23;94651.13;;;21.36;37.15
22389;BME280;11362;48.102;11.620;2023-04-23T10:49:49;94645.59;;;21.36;37.13
22389;BME280;11362;48.102;11.620;2023-04-23T10:52:15;94639.28;;;21.36;37.07
22389;BME280;11362;48.102;11.620;2023-04-23T10:54:42;94633.75;;;21.36;37.13
22389;BME280;11362;48.102;11.620;2023-04-23T10:57:09;94636.50;;;21.36;37.17
22389;BME280;11362;48.102;11.620;2023-04-23T10:59:39;94629.03;;;21.36;37.38
22389;BME280;11362;48.102;11.620;2023-04-23T11:04:32;94615.63;;;21.35;37.33
22389;BME280;11362;48.102;11.620;2023-04-23T11:11:59;94603.72;;;21.38;37.39
22389;BME280;11362;48.102;11.620;2023-04-23T11:17:00;94588.00;;;21.35;37.31
22389;BME280;11362;48.102;11.620;2023-04-23T11:19:25;94588.75;;;21.35;37.28
22389;BME280;11362;48.102;11.620;2023-04-23T11:24:30;94572.97;;;21.36;37.29
22389;BME280;11362;48.102;11.620;2023-04-23T11:26:56;94565.91;;;21.35;37.32
22389;BME280;11362;48.102;11.620;2023-04-23T11:29:22;94578.50;;;21.36;37.48
22389;BME280;11362;48.102;11.620;2023-04-23T11:31:48;94568.66;;;21.35;37.47
22389;BME280;11362;48.102;11.620;2023-04-23T11:34:15;94563.53;;;21.33;37.45
22389;BME280;11362;48.102;11.620;2023-04-23T11:36:41;94581.28;;;21.36;37.40
22389;BME280;11362;48.102;11.620;2023-04-23T11:39:07;94566.66;;;21.35;37.36
22389;BME280;11362;48.102;11.620;2023-04-23T11:41:32;94574.53;;;21.37;37.38
22389;BME280;11362;48.102;11.620;2023-04-23T11:43:57;94563.50;;;21.37;37.42
22389;BME280;11362;48.102;11.620;2023-04-23T11:46:23;94562.28;;;21.38;37.21
22389;BME280;11362;48.102;11.620;2023-04-23T11:48:48;94562.28;;;21.38;37.61
22389;BME280;11362;48.102;11.620;2023-04-23T11:51:14;94565.03;;;21.38;37.39
22389;BME280;11362;48.102;11.620;2023-04-23T11:53:46;94557.97;;;21.37;37.18
22389;BME280;11362;48.102;11.620;2023-04-23T11:56:11;94547.72;;;21.37;37.38
22389;BME280;11362;48.102;11.620;2023-04-23T11:58:39;94544.50;;;21.39;37.28
22389;BME280;11362;48.102;11.620;2023-04-23T12:01:05;94540.19;;;21.38;37.38
22389;BME280;11362;48.102;11.620;2023-04-23T12:03:30;94535.47;;;21.38;37.37
22389;BME280;11362;48.102;11.620;2023-04-23T12:05:55;94533.47;;;21.39;37.32
22389;BME280;11362;48.102;11.620;2023-04-23T12:08:22;94527.94;;;21.39;37.28
22389;BME280;11362;48.102;11.620;2023-04-23T12:10:50;94526.38;;;21.38;37.09
22389;BME280;11362;48.102;11.620;2023-04-23T12:13:26;94525.16;;;21.39;37.28
22389;BME280;11362;48.102;11.620;2023-04-23T12:15:54;94524.75;;;21.40;37.33
22389;BME280;11362;48.102;11.620;2023-04-23T12:18:26;94513.72;;;21.40;37.29
22389;BME280;11362;48.102;11.620;2023-04-23T12:20:51;94514.50;;;21.41;37.19
22389;BME280;11362;48.102;11.620;2023-04-23T12:23:17;94510.19;;;21.40;37.23
22389;BME280;11362;48.102;11.620;2023-04-23T12:25:42;94508.97;;;21.41;37.48
22389;BME280;11362;48.102;11.620;2023-04-23T12:28:08;94502.66;;;21.40;37.16
22389;BME280;11362;48.102;11.620;2023-04-23T12:30:34;94505.00;;;21.42;37.20
22389;BME280;11362;48.102;11.620;2023-04-23T12:33:09;94508.13;;;21.44;37.09
22389;BME280;11362;48.102;11.620;2023-04-23T12:35:42;94501.84;;;21.43;37.11
22389;BME280;11362;48.102;11.620;2023-04-23T12:38:28;94503.38;;;21.44;37.12
22389;BME280;11362;48.102;11.620;2023-04-23T12:40:58;94497.06;;;21.44;37.15
22389;BME280;11362;48.102;11.620;2023-04-23T12:43:25;94492.34;;;21.44;37.18
22389;BME280;11362;48.102;11.620;2023-04-23T12:45:52;94493.91;;;21.45;36.90
22389;BME280;11362;48.102;11.620;2023-04-23T12:48:18;94485.97;;;21.47;37.15
22389;BME280;11362;48.102;11.620;2023-04-23T12:50:44;94472.94;;;21.48;37.13
22389;BME280;11362;48.102;11.620;2023-04-23T12:53:10;94471.72;;;21.49;37.12
22389;BME280;11362;48.102;11.620;2023-04-23T12:55:35;94465.75;;;21.50;37.41